Terminal Aerodrome Forecast
Issued by NWS Wilmington, NC

Current Version | Previous Version | Text Only | Print | Product List | Glossary On
Versions: 1 2 3 4 5 6 7 8 9 10 11 12 13
000
FTUS42 KILM 271700
TAFLBT
TAF
KLBT 271722Z 2718/2818 04007KT P6SM SKC
     FM280000 VRB02KT P6SM SKC
     FM281400 27005KT P6SM SKC=

USA.gov is the U.S. government's official web portal to all federal, state and local government web resources and services.